createdAt,value
2022-09-15T00:00:42.229Z,85.22
2022-09-15T00:03:28.367Z,85.36
2022-09-15T00:06:13.683Z,85.49
2022-09-15T00:08:59.287Z,85.35
2022-09-15T00:11:44.371Z,85.42
2022-09-15T00:14:29.686Z,85.41
2022-09-15T00:17:15.230Z,85.55
2022-09-15T00:20:00.427Z,86.02
2022-09-15T00:22:45.961Z,86.00
2022-09-15T00:25:31.405Z,86.73
2022-09-15T00:28:18.607Z,86.68
2022-09-15T00:31:09.422Z,86.76
2022-09-15T00:33:57.247Z,86.50
2022-09-15T00:36:42.318Z,87.15
2022-09-15T00:39:27.464Z,87.55
2022-09-15T00:42:18.060Z,87.57
2022-09-15T00:45:04.232Z,87.90
2022-09-15T00:47:49.726Z,88.45
2022-09-15T00:50:36.561Z,88.61
2022-09-15T00:53:23.535Z,88.56
2022-09-15T00:56:12.252Z,88.50
2022-09-15T00:59:02.286Z,89.08
2022-09-15T01:01:55.248Z,89.02
2022-09-15T01:04:40.665Z,89.06
2022-09-15T01:07:33.931Z,89.09
2022-09-15T01:10:39.566Z,89.53
2022-09-15T01:13:25.460Z,89.68
2022-09-15T01:16:20.459Z,89.25
2022-09-15T01:19:34.381Z,89.18
2022-09-15T01:22:41.642Z,89.50
2022-09-15T01:26:04.948Z,89.64
2022-09-15T01:28:50.191Z,89.87
2022-09-15T01:32:04.244Z,89.28
2022-09-15T01:35:02.702Z,89.93
2022-09-15T01:37:58.818Z,90.15
2022-09-15T01:40:52.095Z,90.74
2022-09-15T01:43:45.706Z,90.58
2022-09-15T01:46:36.013Z,91.33
2022-09-15T01:49:26.284Z,91.12
2022-09-15T01:52:15.151Z,90.54
2022-09-15T01:55:13.139Z,90.50
2022-09-15T01:57:59.176Z,90.38
2022-09-15T02:00:50.181Z,90.37
2022-09-15T02:03:51.471Z,90.18
2022-09-15T02:07:11.536Z,89.80
2022-09-15T02:10:11.922Z,90.33
2022-09-15T02:13:00.260Z,90.36
2022-09-15T02:15:52.472Z,90.11
2022-09-15T02:19:00.190Z,90.26
2022-09-15T02:22:00.999Z,89.88
2022-09-15T02:24:52.986Z,89.92
2022-09-15T02:27:44.547Z,89.42
2022-09-15T02:30:32.298Z,89.93
2022-09-15T02:33:23.182Z,89.82
2022-09-15T02:36:12.212Z,89.78
2022-09-15T02:39:03.768Z,89.50
2022-09-15T02:41:49.513Z,89.60
2022-09-15T02:44:35.240Z,89.96
2022-09-15T02:47:20.509Z,90.35
2022-09-15T02:50:06.543Z,90.64
2022-09-15T02:52:52.102Z,90.61
2022-09-15T02:55:37.918Z,90.66
2022-09-15T02:58:23.817Z,90.98
2022-09-15T03:01:12.419Z,91.23
2022-09-15T03:03:58.205Z,91.42
2022-09-15T03:06:43.882Z,91.22
2022-09-15T03:09:29.320Z,91.97
2022-09-15T03:12:14.708Z,91.66
2022-09-15T03:14:59.810Z,91.88
2022-09-15T03:17:46.971Z,91.91
2022-09-15T03:20:32.425Z,92.14
2022-09-15T03:23:17.562Z,92.35
2022-09-15T03:26:03.923Z,92.19
2022-09-15T03:28:48.827Z,92.18
2022-09-15T03:31:34.112Z,92.40
2022-09-15T03:34:20.102Z,92.38
2022-09-15T03:37:05.510Z,92.03
2022-09-15T03:39:50.899Z,92.47
2022-09-15T03:42:36.097Z,92.43
2022-09-15T03:45:21.475Z,92.73
2022-09-15T03:48:06.924Z,92.95
2022-09-15T03:50:52.927Z,92.72
2022-09-15T03:53:40.484Z,93.01
2022-09-15T03:56:33.480Z,93.02
2022-09-15T03:59:19.752Z,93.14
2022-09-15T04:02:04.792Z,93.07
2022-09-15T04:04:49.930Z,93.33
2022-09-15T04:07:35.450Z,93.37
2022-09-15T04:10:20.840Z,93.55
2022-09-15T04:13:06.239Z,93.34
2022-09-15T04:16:02.321Z,93.17
2022-09-15T04:18:47.698Z,93.83
2022-09-15T04:21:32.977Z,93.68
2022-09-15T04:24:18.538Z,93.50
2022-09-15T04:27:03.968Z,93.72
2022-09-15T04:29:53.358Z,93.12
2022-09-15T04:32:38.651Z,92.96
2022-09-15T04:35:23.866Z,93.43
2022-09-15T04:38:09.360Z,93.21
2022-09-15T04:40:55.379Z,93.77
2022-09-15T04:43:41.757Z,93.80
2022-09-15T04:46:30.038Z,93.49
2022-09-15T04:49:15.580Z,93.29
2022-09-15T04:52:00.942Z,93.34
2022-09-15T04:54:46.083Z,93.33
2022-09-15T04:57:31.366Z,93.57
2022-09-15T05:00:16.738Z,93.36
2022-09-15T05:03:01.934Z,93.56
2022-09-15T05:05:47.898Z,93.47
2022-09-15T05:08:33.491Z,93.03
2022-09-15T05:11:19.844Z,93.15
2022-09-15T05:14:05.086Z,92.80
2022-09-15T05:16:50.603Z,92.72
2022-09-15T05:19:35.847Z,92.64
2022-09-15T05:22:21.105Z,92.97
2022-09-15T05:25:06.287Z,92.92
2022-09-15T05:27:51.467Z,92.76
2022-09-15T05:30:43.629Z,92.45
2022-09-15T05:33:29.207Z,92.40
2022-09-15T05:36:15.170Z,91.96
2022-09-15T05:39:01.619Z,91.67
2022-09-15T05:41:47.319Z,91.45
2022-09-15T05:44:32.692Z,91.25
2022-09-15T05:47:21.195Z,91.30
2022-09-15T05:50:06.728Z,91.44
2022-09-15T05:52:52.533Z,90.65
2022-09-15T05:55:38.168Z,90.53
2022-09-15T05:58:23.843Z,89.11
2022-09-15T06:01:20.913Z,87.71
2022-09-15T06:04:06.296Z,87.45
2022-09-15T06:06:51.586Z,86.76
2022-09-15T06:09:37.781Z,86.30
2022-09-15T06:12:23.452Z,86.02
2022-09-15T06:15:09.264Z,85.37
2022-09-15T06:17:54.755Z,83.71
2022-09-15T06:20:40.252Z,83.62
2022-09-15T06:23:25.275Z,82.94
2022-09-15T06:26:15.366Z,82.92
2022-09-15T06:29:03.197Z,82.54
2022-09-15T06:31:48.631Z,82.20
2022-09-15T06:34:33.740Z,81.48
2022-09-15T06:37:18.994Z,80.89
2022-09-15T06:40:06.153Z,81.23
2022-09-15T06:42:56.902Z,81.32
2022-09-15T06:45:42.945Z,81.51
2022-09-15T06:48:28.178Z,81.54
2022-09-15T06:51:13.974Z,80.61
2022-09-15T06:53:59.405Z,80.48
2022-09-15T06:56:44.647Z,79.95
2022-09-15T06:59:29.958Z,80.00
2022-09-15T07:02:15.153Z,79.00
2022-09-15T07:05:00.670Z,79.47
2022-09-15T07:07:46.141Z,79.34
2022-09-15T07:10:31.380Z,79.46
2022-09-15T07:13:16.449Z,78.78
2022-09-15T07:16:04.102Z,78.87
2022-09-15T07:18:49.950Z,77.84
2022-09-15T07:21:35.576Z,78.29
2022-09-15T07:24:21.090Z,78.35
2022-09-15T07:27:08.222Z,78.08
2022-09-15T07:29:53.629Z,78.28
2022-09-15T07:32:38.798Z,77.51
2022-09-15T07:35:24.104Z,76.49
2022-09-15T07:38:09.500Z,76.77
2022-09-15T07:40:55.003Z,76.88
2022-09-15T07:43:40.160Z,76.76
2022-09-15T07:46:27.048Z,76.94
2022-09-15T07:49:12.313Z,77.46
2022-09-15T07:51:57.741Z,77.07
2022-09-15T07:54:42.950Z,76.72
2022-09-15T07:57:28.025Z,75.84
2022-09-15T08:00:15.291Z,74.18
2022-09-15T08:03:00.586Z,74.49
2022-09-15T08:05:46.254Z,73.02
2022-09-15T08:08:32.182Z,72.66
2022-09-15T08:11:20.389Z,72.51
2022-09-15T08:14:05.704Z,71.80
2022-09-15T08:16:51.223Z,71.45
2022-09-15T08:19:36.551Z,69.88
2022-09-15T08:22:21.738Z,69.78
2022-09-15T08:25:07.637Z,69.95
2022-09-15T08:27:54.102Z,69.70
2022-09-15T08:30:39.418Z,68.86
2022-09-15T08:33:25.193Z,69.58
2022-09-15T08:36:11.415Z,69.86
2022-09-15T08:38:56.740Z,69.23
2022-09-15T08:41:44.909Z,68.97
2022-09-15T08:44:41.839Z,67.79
2022-09-15T08:47:38.718Z,67.79
2022-09-15T08:50:42.815Z,68.35
2022-09-15T08:53:34.368Z,67.54
2022-09-15T08:56:20.641Z,67.17
2022-09-15T08:59:06.232Z,67.05
2022-09-15T09:01:57.730Z,67.09
2022-09-15T09:05:07.633Z,66.91
2022-09-15T09:08:11.759Z,66.51
2022-09-15T09:11:18.872Z,66.38
2022-09-15T09:14:16.058Z,67.73
2022-09-15T09:17:16.734Z,68.18
2022-09-15T09:20:21.054Z,68.15
2022-09-15T09:23:12.966Z,66.82
2022-09-15T09:26:00.581Z,67.68
2022-09-15T09:28:52.099Z,67.52
2022-09-15T09:31:37.743Z,66.79
2022-09-15T09:34:31.305Z,66.83
2022-09-15T09:37:17.178Z,66.63
2022-09-15T09:40:02.675Z,65.41
2022-09-15T09:42:48.564Z,64.44
2022-09-15T09:45:34.090Z,64.77
2022-09-15T09:48:22.752Z,65.23
2022-09-15T09:51:31.273Z,64.66
2022-09-15T09:54:18.500Z,63.75
2022-09-15T09:57:12.915Z,63.68
2022-09-15T09:59:58.575Z,63.58
2022-09-15T10:02:47.461Z,62.72
2022-09-15T10:05:33.048Z,60.48
2022-09-15T10:08:20.665Z,59.87
2022-09-15T10:11:10.067Z,58.99
2022-09-15T10:13:55.687Z,59.53
2022-09-15T10:16:41.274Z,59.49
2022-09-15T10:19:31.124Z,56.60
2022-09-15T10:22:29.281Z,57.23
2022-09-15T10:25:21.061Z,56.69
2022-09-15T10:28:09.969Z,55.69
2022-09-15T10:31:11.021Z,55.56
2022-09-15T10:33:56.800Z,55.19
2022-09-15T10:36:42.325Z,54.76
2022-09-15T10:39:43.695Z,55.28
2022-09-15T10:42:48.867Z,53.70
2022-09-15T10:45:39.729Z,52.69
2022-09-15T10:48:43.803Z,50.89
2022-09-15T10:51:42.113Z,50.93
2022-09-15T10:54:49.749Z,52.20
2022-09-15T10:58:02.246Z,52.00
2022-09-15T11:01:05.016Z,52.78
2022-09-15T11:04:18.503Z,51.05
2022-09-15T11:07:17.794Z,52.07
2022-09-15T11:10:20.188Z,52.74
2022-09-15T11:13:36.319Z,53.23
2022-09-15T11:16:33.644Z,52.12
2022-09-15T11:19:21.432Z,52.92
2022-09-15T11:22:13.338Z,53.05
2022-09-15T11:25:12.752Z,52.36
2022-09-15T11:28:19.671Z,52.07
2022-09-15T11:31:11.173Z,52.06
2022-09-15T11:34:02.351Z,51.79
2022-09-15T11:36:53.677Z,51.88
2022-09-15T11:39:54.391Z,51.34
2022-09-15T11:42:53.346Z,52.36
2022-09-15T11:45:54.664Z,54.47
2022-09-15T11:48:59.964Z,53.99
2022-09-15T11:51:54.657Z,53.06
2022-09-15T11:54:53.218Z,53.57
2022-09-15T11:57:45.112Z,53.32
2022-09-15T12:00:41.362Z,53.01
2022-09-15T12:03:44.983Z,52.18
2022-09-15T12:06:43.294Z,51.90
2022-09-15T12:09:30.989Z,51.89
2022-09-15T12:12:20.417Z,51.66
2022-09-15T12:15:06.429Z,51.59
2022-09-15T12:18:27.373Z,51.65
2022-09-15T12:21:35.889Z,52.58
2022-09-15T12:25:00.619Z,53.68
2022-09-15T12:28:24.253Z,53.88
2022-09-15T12:31:18.784Z,54.26
2022-09-15T12:34:05.650Z,54.65
2022-09-15T12:36:54.146Z,55.12
2022-09-15T12:39:43.450Z,55.00
2022-09-15T12:42:31.301Z,54.52
2022-09-15T12:45:29.160Z,54.08
2022-09-15T12:48:20.517Z,54.06
2022-09-15T12:51:10.688Z,54.24
2022-09-15T12:54:00.770Z,53.85
2022-09-15T12:56:51.618Z,53.46
2022-09-15T12:59:36.737Z,52.57
2022-09-15T13:02:46.494Z,51.57
2022-09-15T13:05:54.241Z,50.69
2022-09-15T13:08:46.209Z,50.84
2022-09-15T13:11:34.653Z,50.89
2022-09-15T13:14:29.000Z,50.61
2022-09-15T13:17:19.933Z,50.65
2022-09-15T13:20:15.356Z,50.84
2022-09-15T13:23:03.673Z,51.59
2022-09-15T13:25:51.853Z,50.55
2022-09-15T13:28:38.778Z,51.02
2022-09-15T13:31:37.622Z,51.25
2022-09-15T13:35:08.890Z,51.67
2022-09-15T13:38:22.692Z,51.08
2022-09-15T13:41:31.888Z,51.25
2022-09-15T13:44:32.543Z,52.18
2022-09-15T13:47:24.341Z,52.63
2022-09-15T13:50:16.820Z,51.77
2022-09-15T13:53:25.452Z,51.21
2022-09-15T13:56:21.657Z,50.63
2022-09-15T13:59:16.937Z,50.94
2022-09-15T14:02:08.923Z,50.56
2022-09-15T14:04:54.315Z,50.75
2022-09-15T14:07:39.949Z,51.03
2022-09-15T14:10:29.512Z,51.35
2022-09-15T14:13:17.809Z,51.43
2022-09-15T14:16:22.494Z,51.58
2022-09-15T14:19:42.442Z,52.25
2022-09-15T14:22:32.084Z,52.61
2022-09-15T14:25:18.589Z,52.52
2022-09-15T14:28:05.689Z,52.41
2022-09-15T14:30:51.397Z,53.00
2022-09-15T14:33:40.320Z,53.38
2022-09-15T14:36:29.602Z,52.25
2022-09-15T14:39:23.537Z,52.66
2022-09-15T14:42:26.141Z,52.94
2022-09-15T14:48:18.358Z,52.80
2022-09-15T14:51:23.704Z,52.31
2022-09-15T14:54:26.178Z,51.82
2022-09-15T14:57:22.059Z,50.95
2022-09-15T15:00:13.903Z,50.55
2022-09-15T15:03:20.860Z,50.51
2022-09-15T15:06:35.985Z,49.82
2022-09-15T15:09:48.852Z,48.64
2022-09-15T15:12:42.197Z,48.53
2022-09-15T15:15:28.899Z,49.02
2022-09-15T15:18:31.986Z,49.33
2022-09-15T15:21:39.834Z,50.01
2022-09-15T15:24:28.044Z,49.66
2022-09-15T15:27:32.062Z,50.20
2022-09-15T15:30:29.643Z,50.37
2022-09-15T15:33:20.941Z,50.88
2022-09-15T15:36:08.523Z,52.10
2022-09-15T15:39:04.428Z,54.63
2022-09-15T15:42:02.549Z,60.93
2022-09-15T15:45:04.696Z,60.47
2022-09-15T15:47:50.341Z,62.27
2022-09-15T15:50:38.182Z,60.57
2022-09-15T15:53:39.712Z,60.71
2022-09-15T15:56:29.644Z,60.88
2022-09-15T15:59:15.795Z,61.49
2022-09-15T16:02:02.045Z,61.84
2022-09-15T16:04:47.974Z,63.61
2022-09-15T16:07:35.153Z,62.97
2022-09-15T16:10:23.968Z,63.88
2022-09-15T16:13:14.115Z,64.66
2022-09-15T16:16:01.051Z,65.08
2022-09-15T16:18:47.308Z,65.99
2022-09-15T16:21:37.454Z,66.18
2022-09-15T16:24:22.525Z,66.62
2022-09-15T16:27:15.187Z,66.92
2022-09-15T16:30:00.449Z,67.18
2022-09-15T16:32:45.580Z,68.18
2022-09-15T16:35:39.584Z,67.68
2022-09-15T16:38:25.919Z,67.18
2022-09-15T16:41:19.716Z,67.74
2022-09-15T16:44:14.989Z,68.26
2022-09-15T16:47:00.256Z,67.81
2022-09-15T16:49:45.651Z,67.77
2022-09-15T16:52:31.257Z,67.92
2022-09-15T16:55:47.638Z,67.83
2022-09-15T16:58:32.948Z,67.74
2022-09-15T17:01:21.027Z,67.77
2022-09-15T17:04:14.577Z,67.49
2022-09-15T17:06:59.589Z,66.58
2022-09-15T17:09:47.093Z,66.52
2022-09-15T17:12:32.652Z,66.09
2022-09-15T17:15:29.459Z,66.37
2022-09-15T17:18:15.488Z,66.41
2022-09-15T17:21:00.900Z,66.43
2022-09-15T17:23:48.623Z,66.47
2022-09-15T17:26:33.891Z,66.27
2022-09-15T17:29:18.972Z,66.72
2022-09-15T17:32:04.513Z,67.15
2022-09-15T17:34:49.791Z,67.61
2022-09-15T17:37:35.370Z,68.41
2022-09-15T17:40:21.632Z,68.04
2022-09-15T17:43:12.403Z,68.35
2022-09-15T17:45:57.779Z,68.46
2022-09-15T17:48:43.347Z,69.04
2022-09-15T17:51:28.215Z,69.38
2022-09-15T17:54:13.859Z,69.87
2022-09-15T17:56:59.250Z,70.62
2022-09-15T17:59:44.689Z,71.35
2022-09-15T18:02:31.476Z,71.52
2022-09-15T18:05:18.844Z,71.33
2022-09-15T18:08:05.812Z,71.54
2022-09-15T18:10:51.432Z,71.87
2022-09-15T18:13:37.739Z,71.41
2022-09-15T18:16:23.104Z,72.35
2022-09-15T18:19:08.231Z,72.40
2022-09-15T18:21:53.939Z,72.77
2022-09-15T18:24:39.414Z,72.83
2022-09-15T18:27:24.353Z,72.97
2022-09-15T18:30:10.668Z,73.16
2022-09-15T18:32:56.542Z,73.63
2022-09-15T18:35:42.576Z,74.09
2022-09-15T18:38:27.771Z,74.31
2022-09-15T18:41:12.978Z,74.84
2022-09-15T18:43:58.166Z,75.11
2022-09-15T18:46:43.732Z,75.07
2022-09-15T18:49:28.726Z,75.75
2022-09-15T18:52:14.247Z,75.85
2022-09-15T18:54:59.566Z,75.30
2022-09-15T18:57:45.287Z,75.52
2022-09-15T19:00:31.654Z,75.77
2022-09-15T19:03:16.891Z,75.79
2022-09-15T19:06:04.819Z,75.38
2022-09-15T19:08:49.896Z,75.20
2022-09-15T19:11:35.145Z,75.54
2022-09-15T19:14:20.645Z,75.26
2022-09-15T19:17:05.834Z,75.63
2022-09-15T19:19:51.352Z,75.54
2022-09-15T19:22:37.665Z,75.75
2022-09-15T19:25:23.371Z,75.71
2022-09-15T19:28:09.787Z,75.19
2022-09-15T19:30:54.975Z,75.82
2022-09-15T19:33:43.047Z,75.33
2022-09-15T19:36:29.213Z,75.57
2022-09-15T19:39:14.846Z,75.57
2022-09-15T19:42:00.134Z,75.29
2022-09-15T19:44:45.899Z,75.83
2022-09-15T19:47:31.119Z,75.79
2022-09-15T19:50:16.487Z,76.05
2022-09-15T19:53:01.804Z,76.35
2022-09-15T19:55:51.885Z,76.07
2022-09-15T19:58:37.419Z,76.21
2022-09-15T20:01:24.781Z,76.36
2022-09-15T20:04:10.959Z,76.41
2022-09-15T20:06:56.864Z,76.61
2022-09-15T20:09:42.128Z,76.46
2022-09-15T20:12:27.390Z,76.65
2022-09-15T20:15:12.509Z,77.21
2022-09-15T20:17:57.724Z,77.22
2022-09-15T20:20:43.136Z,77.19
2022-09-15T20:23:29.043Z,76.95
2022-09-15T20:26:16.867Z,77.12
2022-09-15T20:29:02.505Z,77.47
2022-09-15T20:31:48.645Z,77.49
2022-09-15T20:34:36.887Z,77.25
2022-09-15T20:37:23.052Z,77.02
2022-09-15T20:40:11.665Z,77.74
2022-09-15T20:42:57.000Z,76.93
2022-09-15T20:45:42.519Z,76.94
2022-09-15T20:48:36.537Z,77.17
2022-09-15T20:51:24.246Z,77.45
2022-09-15T20:54:10.861Z,77.34
2022-09-15T20:56:56.131Z,78.14
2022-09-15T20:59:41.271Z,78.15
2022-09-15T21:02:26.506Z,78.82
2022-09-15T21:05:13.880Z,79.19
2022-09-15T21:07:59.469Z,79.29
2022-09-15T21:10:45.446Z,79.74
2022-09-15T21:13:33.650Z,79.64
2022-09-15T21:16:21.396Z,80.37
2022-09-15T21:19:12.080Z,80.28
2022-09-15T21:21:58.462Z,80.01
2022-09-15T21:24:43.469Z,80.26
2022-09-15T21:27:30.001Z,80.11
2022-09-15T21:30:15.431Z,79.51
2022-09-15T21:33:01.058Z,78.97
2022-09-15T21:35:48.916Z,78.71
2022-09-15T21:38:36.198Z,78.52
2022-09-15T21:41:25.936Z,78.51
2022-09-15T21:44:11.270Z,78.21
2022-09-15T21:46:56.707Z,78.55
2022-09-15T21:49:42.136Z,79.32
2022-09-15T21:52:27.779Z,79.86
2022-09-15T21:55:12.886Z,80.84
2022-09-15T21:57:58.123Z,80.91
2022-09-15T22:00:43.379Z,81.20
2022-09-15T22:03:28.524Z,81.48
2022-09-15T22:06:13.790Z,80.97
2022-09-15T22:09:05.174Z,81.16
2022-09-15T22:11:51.105Z,81.12
2022-09-15T22:14:36.451Z,81.34
2022-09-15T22:17:21.656Z,80.82
2022-09-15T22:20:09.207Z,81.05
2022-09-15T22:23:01.171Z,80.73
2022-09-15T22:25:46.315Z,80.69
2022-09-15T22:28:32.191Z,80.82
2022-09-15T22:31:19.548Z,81.10
2022-09-15T22:34:04.750Z,80.95
2022-09-15T22:36:49.928Z,81.86
2022-09-15T22:39:58.999Z,81.16
2022-09-15T22:42:40.618Z,81.24
2022-09-15T22:45:25.865Z,81.33
2022-09-15T22:48:11.551Z,81.42
2022-09-15T22:50:56.951Z,81.30
2022-09-15T22:53:42.419Z,81.99
2022-09-15T22:56:27.478Z,81.88
2022-09-15T22:59:13.553Z,81.48
2022-09-15T23:01:58.878Z,81.13
2022-09-15T23:04:44.167Z,81.15
2022-09-15T23:07:29.267Z,81.16
2022-09-15T23:10:14.883Z,81.25
2022-09-15T23:13:00.436Z,80.58
2022-09-15T23:15:45.512Z,80.75
2022-09-15T23:18:30.545Z,80.34
2022-09-15T23:21:16.148Z,80.50
2022-09-15T23:24:01.905Z,80.24
2022-09-15T23:26:47.183Z,80.43
2022-09-15T23:29:32.452Z,79.90
2022-09-15T23:32:17.803Z,80.44
2022-09-15T23:35:03.561Z,79.82
2022-09-15T23:37:48.964Z,79.77
2022-09-15T23:40:34.088Z,79.98
2022-09-15T23:43:19.511Z,80.19
2022-09-15T23:46:04.947Z,80.18
2022-09-15T23:48:50.078Z,80.30
2022-09-15T23:51:35.571Z,79.95
2022-09-15T23:54:20.483Z,80.11
2022-09-15T23:57:05.996Z,80.07
2022-09-15T23:59:51.593Z,79.81
